Time;durP1;ratioP1;P1;durP2;ratioP2;P2;SDS_P1;SDS_P2;PMS_P1;PMS_P2;Temp;Humidity;BMP_temperature;BMP_pressure;BME280_temperature;BME280_humidity;BME280_pressure;Samples;Min_cycle;Max_cycle;Signal;HPM_P1;HPM_P2
2022/11/12 00:01:07;;;;;;;40.90;27.17;;;6.90;82.40;;;;;;5095585;28;20020;-15
2022/11/12 00:03:33;;;;;;;40.67;24.52;;;6.90;82.30;;;;;;5095599;28;20016;-15
2022/11/12 00:05:59;;;;;;;33.38;22.55;;;6.90;82.10;;;;;;5095450;28;20028;-15
2022/11/12 00:08:24;;;;;;;50.38;34.05;;;6.90;81.80;;;;;;5095458;28;20024;-16
2022/11/12 00:10:50;;;;;;;47.58;30.85;;;6.90;81.90;;;;;;5095149;28;20017;-16
2022/11/12 00:13:16;;;;;;;33.58;22.88;;;6.90;81.90;;;;;;5095250;28;20024;-14
2022/11/12 00:15:42;;;;;;;37.90;26.52;;;6.90;81.90;;;;;;5094025;28;20577;-15
2022/11/12 00:20:52;;;;;;;39.80;26.80;;;6.90;81.90;;;;;;5095336;28;20078;-16
2022/11/12 00:23:18;;;;;;;45.88;32.22;;;6.80;81.80;;;;;;5095462;28;20414;-15
2022/11/12 00:25:44;;;;;;;48.20;32.50;;;6.90;81.90;;;;;;5095322;28;20051;-15
2022/11/12 00:28:10;;;;;;;47.08;30.88;;;6.80;82.00;;;;;;5095826;28;20455;-15
2022/11/12 00:30:38;;;;;;;32.63;22.30;;;6.80;81.90;;;;;;5094941;28;20392;-15
2022/11/12 00:33:05;;;;;;;45.50;31.55;;;6.70;81.90;;;;;;5094987;28;20028;-15
2022/11/12 00:35:32;;;;;;;42.88;28.77;;;6.70;81.90;;;;;;5095420;28;20073;-15
2022/11/12 00:37:59;;;;;;;30.60;21.05;;;6.70;82.20;;;;;;5095107;28;20433;-15
2022/11/12 00:40:25;;;;;;;27.75;18.77;;;6.70;82.10;;;;;;5095086;28;20048;-15
2022/11/12 00:42:52;;;;;;;33.92;23.15;;;6.70;81.90;;;;;;5094777;28;20020;-16
2022/11/12 00:45:19;;;;;;;45.53;29.92;;;6.60;82.10;;;;;;5095183;28;20524;-15
2022/11/12 00:47:45;;;;;;;46.45;31.05;;;6.60;82.20;;;;;;5094904;28;20024;-15
2022/11/12 00:50:11;;;;;;;38.50;26.60;;;6.60;82.00;;;;;;5094838;28;20445;-14
2022/11/12 00:52:37;;;;;;;37.45;25.52;;;6.60;82.10;;;;;;5094545;28;20391;-15
2022/11/12 00:55:03;;;;;;;45.42;31.50;;;6.50;82.10;;;;;;5094155;28;20385;-15
2022/11/12 00:57:29;;;;;;;49.10;32.50;;;6.50;82.10;;;;;;5094832;28;20353;-15
2022/11/12 00:59:55;;;;;;;40.30;27.27;;;6.50;82.10;;;;;;5094266;28;20031;-16
2022/11/12 01:02:21;;;;;;;38.15;24.38;;;6.50;82.20;;;;;;5095000;28;20388;-15
2022/11/12 01:04:47;;;;;;;38.05;25.50;;;6.50;82.30;;;;;;5094563;28;20028;-16
2022/11/12 01:07:14;;;;;;;38.80;24.55;;;6.50;82.40;;;;;;5094567;28;20107;-16
2022/11/12 01:09:40;;;;;;;37.85;24.38;;;6.50;82.40;;;;;;5094555;28;20133;-15
2022/11/12 01:12:06;;;;;;;29.15;22.05;;;6.50;82.40;;;;;;5092791;28;20024;-14
2022/11/12 01:14:32;;;;;;;34.55;24.65;;;6.50;82.40;;;;;;5093702;28;20055;-15
2022/11/12 01:16:58;;;;;;;30.88;21.27;;;6.50;82.50;;;;;;5094140;28;20024;-14
2022/11/12 01:19:24;;;;;;;31.00;21.25;;;6.50;82.40;;;;;;5094318;28;20035;-15
2022/11/12 01:21:50;;;;;;;38.53;23.67;;;6.50;82.30;;;;;;5093981;28;20426;-14
2022/11/12 01:24:16;;;;;;;32.65;21.27;;;6.40;82.20;;;;;;5093941;28;20020;-14
2022/11/12 01:26:42;;;;;;;34.53;22.30;;;6.40;82.20;;;;;;5094229;28;20028;-15
2022/11/12 01:29:08;;;;;;;29.92;21.73;;;6.30;82.30;;;;;;5093930;28;20032;-15
2022/11/12 01:31:36;;;;;;;28.08;19.98;;;6.30;82.30;;;;;;5093870;28;20081;-14
2022/11/12 01:34:05;;;;;;;31.98;21.50;;;6.20;82.20;;;;;;5094010;28;20039;-15
2022/11/12 01:36:34;;;;;;;36.47;25.67;;;6.20;82.20;;;;;;5093967;28;20035;-15
2022/11/12 01:39:01;;;;;;;30.02;22.85;;;6.20;82.10;;;;;;5093882;28;20016;-14
2022/11/12 01:41:30;;;;;;;43.03;27.08;;;6.30;82.30;;;;;;5093990;28;20032;-15
2022/11/12 01:44:29;;;;;;;43.33;28.20;;;6.30;82.10;;;;;;5093906;28;20024;-14
2022/11/12 01:47:10;;;;;;;45.10;28.25;;;6.30;82.10;;;;;;5031269;28;20034;-14
2022/11/12 01:49:45;;;;;;;40.42;27.42;;;6.40;82.20;;;;;;5031388;28;20120;-15
2022/11/12 01:52:10;;;;;;;31.70;23.92;;;6.30;82.20;;;;;;5014943;28;20029;-15
2022/11/12 01:54:38;;;;;;;33.15;23.17;;;6.40;82.50;;;;;;5031262;28;20083;-15
2022/11/12 01:57:05;;;;;;;31.20;22.50;;;6.40;82.50;;;;;;5031603;28;20118;-14
2022/11/12 01:59:37;;;;;;;29.15;20.98;;;6.40;82.40;;;;;;5031075;28;20033;-16
2022/11/12 02:02:04;;;;;;;31.88;22.65;;;6.40;82.20;;;;;;5031211;28;20040;-15
2022/11/12 02:04:32;;;;;;;26.85;18.98;;;6.40;82.00;;;;;;5031322;28;20042;-15
2022/11/12 02:06:59;;;;;;;28.88;20.05;;;6.40;82.00;;;;;;5030878;28;20125;-14
2022/11/12 02:09:25;;;;;;;31.25;21.23;;;6.40;82.00;;;;;;5030992;28;20033;-16
2022/11/12 02:11:51;;;;;;;41.78;29.13;;;6.40;82.10;;;;;;5031098;28;20036;-15
2022/11/12 02:14:17;;;;;;;33.78;21.73;;;6.40;82.20;;;;;;5030506;28;20049;-16
2022/11/12 02:16:45;;;;;;;34.25;23.75;;;6.40;82.20;;;;;;5031054;28;20041;-16
2022/11/12 02:19:14;;;;;;;24.00;16.90;;;6.30;82.30;;;;;;5030759;28;20116;-15
2022/11/12 02:21:41;;;;;;;26.70;18.95;;;6.30;82.10;;;;;;5030923;28;20112;-15
2022/11/12 02:24:12;;;;;;;31.45;21.85;;;6.30;82.20;;;;;;5085227;28;20507;-15
2022/11/12 02:26:45;;;;;;;28.60;20.45;;;6.30;82.10;;;;;;5093222;28;20039;-14
2022/11/12 02:29:11;;;;;;;35.75;23.67;;;6.30;82.10;;;;;;5092903;28;20021;-15
2022/11/12 02:31:37;;;;;;;28.25;20.30;;;6.30;82.20;;;;;;5092999;28;20031;-15
2022/11/12 02:34:03;;;;;;;40.67;26.70;;;6.20;82.10;;;;;;5093253;28;20032;-14
2022/11/12 02:36:30;;;;;;;33.47;24.13;;;6.20;82.10;;;;;;5093365;28;20055;-15
2022/11/12 02:38:56;;;;;;;27.95;19.58;;;6.20;82.30;;;;;;5092830;28;20099;-15
2022/11/12 02:41:22;;;;;;;27.80;18.90;;;6.20;82.40;;;;;;5092986;28;20028;-14
2022/11/12 02:43:48;;;;;;;25.67;19.02;;;6.20;82.30;;;;;;5093302;28;20016;-15
2022/11/12 02:46:14;;;;;;;21.73;15.70;;;6.20;82.40;;;;;;5092859;28;20118;-14
2022/11/12 02:48:40;;;;;;;36.83;25.02;;;6.10;82.20;;;;;;5093044;28;20028;-14
2022/11/12 02:51:06;;;;;;;21.98;16.77;;;6.10;82.30;;;;;;5093066;28;20028;-15
2022/11/12 02:53:33;;;;;;;24.70;17.55;;;6.10;82.30;;;;;;5093045;28;20107;-15
2022/11/12 02:56:00;;;;;;;30.92;20.80;;;6.10;82.20;;;;;;5093060;28;20023;-15
2022/11/12 02:58:26;;;;;;;31.65;21.98;;;6.10;82.50;;;;;;5093174;28;20088;-14
2022/11/12 03:00:53;;;;;;;40.13;27.98;;;6.10;82.40;;;;;;5092745;28;20091;-14
2022/11/12 03:03:18;;;;;;;37.63;26.33;;;6.00;82.30;;;;;;5092837;28;20028;-14
2022/11/12 03:05:45;;;;;;;38.13;26.05;;;6.10;82.40;;;;;;5091489;28;20031;-15
2022/11/12 03:08:11;;;;;;;39.75;26.88;;;6.00;82.40;;;;;;5093100;28;20553;-16
2022/11/12 03:10:38;;;;;;;41.10;28.20;;;6.00;82.60;;;;;;5093038;28;20056;-15
2022/11/12 03:13:05;;;;;;;39.22;27.13;;;6.00;82.60;;;;;;5092517;28;20035;-15
2022/11/12 03:15:31;;;;;;;35.05;22.73;;;6.10;82.70;;;;;;5092358;28;20044;-16
2022/11/12 03:17:58;;;;;;;29.25;19.88;;;6.00;82.70;;;;;;5092929;28;20065;-15
2022/11/12 03:20:24;;;;;;;28.02;19.90;;;6.00;82.70;;;;;;5092803;28;20165;-15
2022/11/12 03:23:05;;;;;;;32.28;20.85;;;6.00;82.80;;;;;;5095529;28;20028;-15
2022/11/12 03:25:32;;;;;;;37.92;26.50;;;6.00;82.70;;;;;;5096612;28;20062;-15
2022/11/12 03:28:17;;;;;;;28.95;19.90;;;6.00;82.80;;;;;;5096230;28;20490;-15
2022/11/12 03:30:43;;;;;;;;;;;6.00;82.80;;;;;;5096863;28;20052;-15
2022/11/12 03:33:11;;;;;;;24.92;17.65;;;6.00;83.00;;;;;;5096062;28;20004;-15
2022/11/12 03:35:38;;;;;;;27.45;19.58;;;6.00;82.90;;;;;;5096029;28;20020;-15
2022/11/12 03:38:04;;;;;;;31.13;21.17;;;6.00;82.90;;;;;;5096601;28;20020;-15
2022/11/12 03:40:31;;;;;;;25.63;17.77;;;5.90;83.00;;;;;;5096138;28;20115;-15
2022/11/12 03:42:58;;;;;;;27.77;19.10;;;5.90;82.90;;;;;;5096033;28;20084;-16
2022/11/12 03:45:26;;;;;;;26.40;17.92;;;5.90;82.80;;;;;;5096090;28;20024;-15
2022/11/12 03:47:55;;;;;;;29.55;20.83;;;5.90;82.70;;;;;;5094571;28;20122;-15
2022/11/12 03:50:23;;;;;;;30.30;21.50;;;5.90;82.50;;;;;;5095771;28;20498;-15
2022/11/12 03:52:52;;;;;;;32.20;23.73;;;6.00;82.40;;;;;;5095845;28;20031;-15
2022/11/12 03:55:20;;;;;;;30.02;20.42;;;6.00;82.30;;;;;;5095584;28;20127;-15
2022/11/12 03:57:51;;;;;;;29.13;22.15;;;5.90;82.50;;;;;;5096126;28;20055;-15
2022/11/12 04:00:18;;;;;;;29.00;19.73;;;5.90;82.70;;;;;;5095601;28;20498;-15
2022/11/12 04:02:45;;;;;;;37.25;25.05;;;5.90;82.50;;;;;;5095630;28;20028;-14
2022/11/12 04:10:48;;;;;;;28.50;19.83;;;5.90;82.80;;;;;;5095539;28;20109;-15
2022/11/12 04:13:26;;;;;;;32.83;20.90;;;5.90;82.80;;;;;;5095464;28;20024;-15
2022/11/12 04:26:21;;;;;;;29.02;19.63;;;5.80;82.90;;;;;;5095553;28;20458;-15
2022/11/12 04:27:00;;;;;;;32.60;22.05;;;5.80;83.00;;;;;;5094884;28;20127;-15
2022/11/12 04:32:11;;;;;;;32.60;22.52;;;5.80;83.10;;;;;;5095643;28;20498;-15
2022/11/12 04:34:37;;;;;;;30.95;21.70;;;5.80;83.00;;;;;;5095091;28;20036;-15
2022/11/12 04:37:05;;;;;;;37.63;22.80;;;5.80;83.00;;;;;;5094902;28;20480;-16
2022/11/12 04:39:30;;;;;;;28.33;19.50;;;5.90;83.20;;;;;;5094803;28;20028;-15
2022/11/12 04:47:47;;;;;;;26.15;18.20;;;5.90;83.10;;;;;;5095361;28;20081;-15
2022/11/12 04:50:17;;;;;;;33.65;23.70;;;5.90;83.10;;;;;;5093209;28;20437;-15
2022/11/12 04:52:43;;;;;;;33.72;21.35;;;5.90;83.30;;;;;;5094898;28;20028;-14
2022/11/12 04:55:10;;;;;;;25.77;18.17;;;5.90;83.30;;;;;;5094352;28;20102;-15
2022/11/12 04:57:37;;;;;;;23.13;16.27;;;5.90;83.10;;;;;;5093430;28;20479;-14
2022/11/12 05:00:07;;;;;;;26.48;18.15;;;5.90;83.10;;;;;;5094413;28;20063;-15
2022/11/12 05:02:33;;;;;;;35.78;22.52;;;5.80;83.10;;;;;;5094288;28;20040;-15
2022/11/12 05:04:58;;;;;;;31.05;19.45;;;5.90;83.20;;;;;;5094453;28;20020;-15
2022/11/12 05:07:24;;;;;;;34.30;22.85;;;5.90;83.10;;;;;;5095242;28;20550;-15
2022/11/12 05:09:50;;;;;;;31.27;21.95;;;5.90;83.20;;;;;;5094286;28;20085;-16
2022/11/12 05:12:16;;;;;;;29.75;18.92;;;5.90;83.20;;;;;;5093033;28;20026;-15
2022/11/12 05:14:42;;;;;;;31.23;17.40;;;6.00;83.10;;;;;;5093767;28;20059;-14
2022/11/12 05:17:07;;;;;;;27.27;18.42;;;6.10;83.40;;;;;;5094263;28;20108;-14
2022/11/12 05:19:34;;;;;;;26.80;18.85;;;6.10;83.40;;;;;;5094416;28;20168;-15
2022/11/12 05:22:06;;;;;;;24.33;17.27;;;6.20;83.30;;;;;;5094361;28;20043;-15
2022/11/12 05:24:34;;;;;;;24.35;17.50;;;6.20;83.20;;;;;;5094017;28;20028;-14
2022/11/12 05:27:00;;;;;;;24.80;17.13;;;6.30;83.20;;;;;;5094027;28;20027;-15
2022/11/12 05:29:26;;;;;;;21.85;15.13;;;6.30;83.00;;;;;;5093867;28;20484;-16
2022/11/12 05:31:52;;;;;;;22.38;15.60;;;6.40;82.90;;;;;;5093788;28;20035;-15
2022/11/12 05:34:18;;;;;;;28.17;19.70;;;6.40;83.20;;;;;;5094046;28;20027;-14
2022/11/12 05:36:44;;;;;;;22.08;14.65;;;6.40;83.20;;;;;;5094181;28;20073;-14
2022/11/12 05:39:09;;;;;;;27.38;16.50;;;6.40;82.90;;;;;;5092429;28;20035;-14
2022/11/12 05:41:35;;;;;;;26.90;19.23;;;6.40;83.20;;;;;;5092414;28;20479;-13
2022/11/12 05:44:01;;;;;;;26.25;17.58;;;6.40;83.20;;;;;;5093548;28;20032;-12
2022/11/12 05:46:26;;;;;;;25.30;16.20;;;6.50;83.00;;;;;;5093686;28;20093;-13
2022/11/12 05:48:52;;;;;;;25.85;17.00;;;6.50;83.00;;;;;;5093672;28;20523;-13
2022/11/12 05:51:18;;;;;;;25.63;17.38;;;6.50;83.00;;;;;;5093659;28;20024;-13
2022/11/12 05:53:43;;;;;;;27.00;17.63;;;6.50;83.30;;;;;;5093409;28;20533;-13
2022/11/12 05:56:11;;;;;;;24.63;17.33;;;6.50;83.20;;;;;;5093450;28;20123;-12
2022/11/12 05:58:37;;;;;;;26.13;17.25;;;6.60;83.20;;;;;;5093394;28;20039;-11
2022/11/12 06:01:03;;;;;;;27.33;18.05;;;6.60;83.20;;;;;;5093046;28;20114;-12
2022/11/12 06:03:29;;;;;;;26.02;17.52;;;6.60;83.10;;;;;;5093553;28;20107;-12
2022/11/12 06:05:55;;;;;;;24.92;17.40;;;6.60;83.20;;;;;;5093667;28;20058;-12
2022/11/12 06:08:21;;;;;;;24.27;16.23;;;6.70;83.30;;;;;;5092022;28;20473;-12
2022/11/12 06:10:51;;;;;;;25.00;16.52;;;6.70;83.30;;;;;;5093643;28;20503;-12
2022/11/12 06:13:18;;;;;;;21.25;14.57;;;6.70;83.30;;;;;;5093135;28;20043;-14
2022/11/12 06:15:47;;;;;;;20.75;14.30;;;6.80;83.30;;;;;;5093513;28;20028;-13
2022/11/12 06:18:13;;;;;;;22.40;15.82;;;6.80;83.40;;;;;;5093500;28;20032;-13
2022/11/12 06:20:39;;;;;;;25.42;16.55;;;6.80;83.30;;;;;;5093496;28;20055;-12
2022/11/12 06:23:05;;;;;;;21.00;14.25;;;6.90;83.30;;;;;;5091756;28;20031;-12
2022/11/12 06:25:31;;;;;;;18.15;12.45;;;6.90;83.40;;;;;;5091849;28;20434;-12
2022/11/12 06:27:57;;;;;;;18.13;11.30;;;6.90;83.60;;;;;;5093180;28;20577;-12
2022/11/12 06:30:23;;;;;;;17.45;12.05;;;7.00;83.50;;;;;;5093675;28;20032;-12
2022/11/12 06:32:49;;;;;;;17.40;11.73;;;7.00;83.50;;;;;;5093733;28;20442;-15
2022/11/12 06:35:17;;;;;;;25.25;14.93;;;7.10;83.40;;;;;;5092940;28;20119;-15
2022/11/12 06:37:46;;;;;;;23.17;14.93;;;7.20;83.40;;;;;;5093322;28;20043;-11
2022/11/12 06:40:13;;;;;;;17.35;11.18;;;7.20;83.40;;;;;;5093006;28;20467;-14
2022/11/12 06:42:39;;;;;;;24.70;15.82;;;7.20;83.30;;;;;;5093201;28;20522;-15
2022/11/12 06:45:06;;;;;;;22.63;14.45;;;7.30;83.40;;;;;;5092737;28;20107;-15
2022/11/12 06:47:32;;;;;;;18.42;11.55;;;7.30;83.40;;;;;;5093263;28;20024;-14
2022/11/12 06:49:58;;;;;;;16.70;11.35;;;7.40;83.50;;;;;;5093257;28;20056;-13
2022/11/12 06:52:24;;;;;;;14.68;10.00;;;7.40;83.30;;;;;;5092886;28;20442;-13
2022/11/12 06:54:49;;;;;;;16.92;11.10;;;7.40;83.30;;;;;;5092662;28;20032;-13
2022/11/12 06:57:15;;;;;;;21.85;13.52;;;7.50;83.20;;;;;;5095398;28;20536;-13
2022/11/12 06:59:41;;;;;;;20.75;13.40;;;7.60;83.30;;;;;;5097224;28;20058;-13
2022/11/12 07:02:06;;;;;;;24.75;16.23;;;7.60;83.30;;;;;;5096700;28;20069;-13
2022/11/12 07:04:32;;;;;;;17.95;12.13;;;7.70;83.30;;;;;;5097000;28;20116;-13
2022/11/12 07:06:58;;;;;;;19.13;12.50;;;7.80;83.60;;;;;;5096647;28;20024;-13
2022/11/12 07:09:24;;;;;;;19.55;12.10;;;7.80;83.50;;;;;;5096634;28;20024;-13
2022/11/12 07:11:49;;;;;;;22.88;13.13;;;7.90;83.40;;;;;;5096536;28;20073;-12
2022/11/12 07:14:15;;;;;;;20.05;11.65;;;7.90;83.60;;;;;;5096175;28;20036;-13
2022/11/12 07:16:41;;;;;;;24.42;16.08;;;7.90;83.60;;;;;;5096408;28;20073;-13
2022/11/12 07:19:06;;;;;;;27.75;15.13;;;8.00;83.70;;;;;;5096497;28;20269;-13
2022/11/12 07:21:32;;;;;;;21.02;12.80;;;8.00;83.50;;;;;;5096365;28;20024;-13
2022/11/12 07:23:58;;;;;;;19.88;12.55;;;8.10;83.30;;;;;;5096285;28;20027;-13
2022/11/12 07:26:28;;;;;;;24.73;15.98;;;8.10;83.10;;;;;;5096616;28;20077;-13
2022/11/12 07:28:55;;;;;;;23.23;16.30;;;8.20;83.20;;;;;;5096384;28;20020;-14
2022/11/12 07:31:21;;;;;;;19.67;13.63;;;8.20;83.10;;;;;;5096425;28;20077;-13
2022/11/12 07:33:48;;;;;;;21.00;15.20;;;8.20;83.00;;;;;;5096622;28;20468;-13
2022/11/12 07:36:19;;;;;;;30.38;20.95;;;8.20;83.10;;;;;;5096334;28;20048;-14
2022/11/12 07:38:45;;;;;;;17.65;12.65;;;8.30;83.10;;;;;;5096095;28;20036;-13
2022/11/12 07:41:15;;;;;;;23.00;14.60;;;8.30;82.90;;;;;;5095811;28;20099;-13
2022/11/12 07:43:45;;;;;;;21.52;14.02;;;8.30;82.80;;;;;;5096257;28;20028;-13
2022/11/12 07:46:25;;;;;;;19.83;12.80;;;8.40;82.80;;;;;;5095982;28;20016;-13
2022/11/12 07:48:52;;;;;;;18.98;12.35;;;8.50;82.80;;;;;;5096035;28;20028;-12
2022/11/12 07:51:27;;;;;;;20.08;12.63;;;8.60;83.00;;;;;;5095854;28;20426;-14
2022/11/12 07:53:55;;;;;;;20.42;11.73;;;8.70;82.90;;;;;;5096548;28;20119;-14
2022/11/12 07:56:23;;;;;;;20.42;11.65;;;8.80;82.60;;;;;;5095883;28;20502;-11
2022/11/12 07:58:50;;;;;;;17.45;11.70;;;8.90;82.60;;;;;;5095680;28;20028;-12
2022/11/12 08:01:37;;;;;;;17.67;11.57;;;9.10;82.60;;;;;;5096034;28;20028;-11
2022/11/12 08:04:06;;;;;;;14.13;10.00;;;9.20;82.30;;;;;;5095943;28;20128;-12
2022/11/12 08:06:33;;;;;;;17.75;11.18;;;9.40;82.40;;;;;;5095459;28;20027;-12
2022/11/12 08:09:01;;;;;;;19.55;12.00;;;9.60;82.60;;;;;;5095538;28;20058;-12
2022/11/12 08:11:28;;;;;;;23.73;12.57;;;9.70;82.20;;;;;;5095672;28;20024;-12
2022/11/12 08:13:54;;;;;;;21.90;12.82;;;9.80;82.10;;;;;;5095248;28;20036;-14
2022/11/12 08:16:19;;;;;;;24.42;14.48;;;9.90;81.60;;;;;;5095454;28;20017;-14
2022/11/12 08:18:46;;;;;;;21.75;14.23;;;10.00;81.30;;;;;;5095622;28;20038;-15
2022/11/12 08:21:15;;;;;;;24.67;14.30;;;10.10;81.00;;;;;;5095365;28;20024;-14
2022/11/12 08:23:41;;;;;;;24.58;14.95;;;10.10;81.00;;;;;;5095524;28;20105;-14
2022/11/12 08:26:09;;;;;;;26.15;14.98;;;10.20;81.10;;;;;;5095415;28;20023;-14
2022/11/12 08:28:37;;;;;;;23.85;13.90;;;10.30;81.00;;;;;;5095440;28;20115;-14
2022/11/12 08:31:10;;;;;;;20.30;13.43;;;10.30;81.10;;;;;;5094884;28;20032;-14
2022/11/12 08:33:36;;;;;;;22.13;12.93;;;10.40;80.90;;;;;;5095416;28;20477;-14
2022/11/12 08:36:04;;;;;;;22.35;13.32;;;10.60;81.10;;;;;;5095141;28;20055;-14
2022/11/12 08:38:30;;;;;;;21.00;13.10;;;10.70;81.00;;;;;;5095178;28;20028;-14
2022/11/12 08:41:03;;;;;;;22.33;13.70;;;10.80;80.60;;;;;;5094804;28;20078;-14
2022/11/12 08:43:29;;;;;;;20.63;12.35;;;10.90;80.50;;;;;;5094971;28;20032;-14
2022/11/12 08:45:58;;;;;;;20.88;11.95;;;11.00;80.50;;;;;;5094976;28;20020;-14
2022/11/12 08:48:25;;;;;;;19.10;12.35;;;11.10;80.20;;;;;;5094979;28;20078;-15
2022/11/12 08:50:52;;;;;;;20.23;12.70;;;11.10;80.30;;;;;;5094751;28;20032;-14
2022/11/12 08:53:20;;;;;;;18.38;10.95;;;11.20;80.10;;;;;;5095114;28;20024;-14
2022/11/12 08:55:46;;;;;;;16.60;11.27;;;11.30;79.90;;;;;;5093288;28;20119;-12
2022/11/12 08:58:13;;;;;;;19.42;12.73;;;11.30;79.90;;;;;;5094845;28;20028;-13
2022/11/12 09:00:43;;;;;;;16.10;10.68;;;11.40;79.90;;;;;;5094449;28;20108;-13
2022/11/12 09:03:15;;;;;;;17.15;11.80;;;11.40;79.90;;;;;;5094246;28;20384;-14
2022/11/12 09:05:42;;;;;;;15.98;10.95;;;11.50;80.00;;;;;;5094662;28;20020;-13
2022/11/12 09:08:13;;;;;;;16.65;11.25;;;11.60;79.90;;;;;;5094579;28;20036;-12
2022/11/12 09:10:40;;;;;;;18.08;12.05;;;11.80;79.80;;;;;;5092962;28;20027;-14
2022/11/12 09:13:06;;;;;;;19.77;13.10;;;11.90;79.60;;;;;;5076049;28;20024;-13
2022/11/12 09:15:32;;;;;;;18.27;12.18;;;12.00;79.50;;;;;;5093784;28;20047;-14
2022/11/12 09:18:01;;;;;;;19.17;12.23;;;12.20;79.30;;;;;;5094136;28;20024;-13
2022/11/12 09:20:28;;;;;;;17.23;11.75;;;12.40;79.20;;;;;;5093386;28;20032;-13
2022/11/12 09:22:59;;;;;;;19.95;12.82;;;12.60;78.90;;;;;;5094192;28;20111;-14
2022/11/12 09:25:25;;;;;;;18.90;13.05;;;12.70;78.70;;;;;;5095041;28;20363;-14
2022/11/12 09:27:51;;;;;;;21.10;12.43;;;12.90;78.10;;;;;;5093995;28;20504;-13
2022/11/12 09:30:17;;;;;;;22.95;12.55;;;13.00;78.00;;;;;;5093690;28;20028;-14
2022/11/12 09:32:43;;;;;;;21.08;12.98;;;13.10;77.70;;;;;;5094148;28;20024;-13
2022/11/12 09:35:08;;;;;;;19.25;12.70;;;13.20;77.70;;;;;;5093560;28;20032;-13
2022/11/12 09:37:37;;;;;;;20.50;12.85;;;13.30;77.50;;;;;;5093809;28;20020;-14
2022/11/12 09:40:05;;;;;;;19.13;12.88;;;13.40;77.40;;;;;;5093982;28;20086;-13
2022/11/12 09:42:35;;;;;;;19.58;12.32;;;13.50;77.30;;;;;;5093677;28;20020;-14
2022/11/12 09:45:13;;;;;;;21.75;12.50;;;13.60;77.20;;;;;;5093373;28;20392;-12
2022/11/12 09:47:45;;;;;;;21.48;13.15;;;13.70;77.00;;;;;;5093938;28;20077;-14
2022/11/12 09:50:38;;;;;;;20.27;12.20;;;13.80;76.80;;;;;;5092402;28;20024;-14
2022/11/12 09:53:21;;;;;;;21.02;13.25;;;13.90;76.40;;;;;;5093411;28;20043;-13
2022/11/12 09:55:49;;;;;;;20.88;12.38;;;13.90;76.30;;;;;;5093466;28;20043;-14
2022/11/12 09:58:17;;;;;;;18.35;11.45;;;13.90;76.20;;;;;;5093498;28;20020;-15
2022/11/12 10:01:00;;;;;;;19.42;12.25;;;14.00;76.10;;;;;;5093618;28;20119;-13
2022/11/12 10:04:23;;;;;;;18.65;11.90;;;14.10;76.00;;;;;;5093920;28;20027;-14
2022/11/12 10:07:15;;;;;;;17.80;12.35;;;14.10;75.80;;;;;;5030975;28;20049;-14
2022/11/12 10:10:08;;;;;;;17.10;10.77;;;14.20;75.70;;;;;;5029020;28;20043;-13
2022/11/12 10:13:07;;;;;;;17.45;11.52;;;14.20;75.80;;;;;;5031357;28;20033;-13
2022/11/12 10:18:38;;;;;;;17.63;11.00;;;14.60;75.20;;;;;;5031359;28;20384;-17
2022/11/12 10:21:19;;;;;;;15.52;10.45;;;14.70;75.10;;;;;;5030909;28;20041;-14
2022/11/12 10:23:48;;;;;;;21.50;11.65;;;14.90;75.00;;;;;;5031209;28;20053;-14
2022/11/12 10:26:17;;;;;;;16.25;10.80;;;15.10;74.60;;;;;;5031759;28;20056;-14
2022/11/12 10:29:09;;;;;;;17.92;11.70;;;15.20;74.00;;;;;;5031315;28;20104;-15
2022/11/12 10:31:36;;;;;;;16.08;10.07;;;15.30;73.50;;;;;;5033809;28;20499;-14
2022/11/12 10:34:20;;;;;;;17.27;10.68;;;15.40;73.50;;;;;;5034917;28;20037;-13
2022/11/12 10:37:00;;;;;;;14.88;9.95;;;15.50;73.30;;;;;;5053970;28;20043;-14
2022/11/12 10:39:36;;;;;;;14.98;10.27;;;15.70;73.10;;;;;;5097184;28;20035;-15
2022/11/12 10:42:08;;;;;;;15.68;10.88;;;16.00;72.70;;;;;;5097999;28;20069;-14
2022/11/12 10:44:35;;;;;;;18.83;11.93;;;16.20;72.40;;;;;;5097409;28;20036;-14
2022/11/12 10:47:29;;;;;;;16.80;11.68;;;16.40;72.00;;;;;;5096828;28;20098;-13
2022/11/12 10:50:04;;;;;;;12.52;8.80;;;16.60;71.30;;;;;;5097677;28;20024;-14
2022/11/12 10:52:30;;;;;;;11.85;9.07;;;16.80;71.10;;;;;;5097231;28;20054;-13
2022/11/12 10:55:19;;;;;;;13.57;10.13;;;17.00;70.60;;;;;;5095722;28;20555;-14
2022/11/12 10:57:45;;;;;;;15.95;11.15;;;17.20;70.10;;;;;;5096894;28;20503;-13
2022/11/12 11:00:15;;;;;;;16.08;10.85;;;17.30;70.00;;;;;;5096980;28;20036;-14
2022/11/12 11:02:47;;;;;;;18.73;12.52;;;17.40;69.50;;;;;;5097041;28;20031;-14
2022/11/12 11:05:37;;;;;;;17.20;11.05;;;17.40;68.90;;;;;;5097170;28;20020;-12
2022/11/12 11:08:04;;;;;;;15.07;10.18;;;17.50;69.00;;;;;;5097235;28;20025;-13
2022/11/12 11:10:35;;;;;;;17.30;12.20;;;17.50;69.00;;;;;;5096789;28;20026;-13
2022/11/12 11:13:22;;;;;;;15.95;11.10;;;17.60;68.40;;;;;;5096619;28;20024;-14
2022/11/12 11:16:01;;;;;;;16.05;11.30;;;17.70;68.10;;;;;;5096250;28;20047;-13
2022/11/12 11:18:33;;;;;;;16.25;11.82;;;17.70;67.60;;;;;;5096808;28;20026;-14
2022/11/12 11:21:23;;;;;;;18.00;11.90;;;17.70;67.40;;;;;;5096234;28;20127;-13
2022/11/12 11:23:55;;;;;;;16.67;12.43;;;17.80;67.40;;;;;;5096644;28;20089;-14
2022/11/12 11:26:47;;;;;;;17.73;12.27;;;17.80;67.00;;;;;;5096265;28;20392;-13
2022/11/12 11:30:11;;;;;;;16.27;11.68;;;17.80;67.00;;;;;;5096837;28;20024;-13
2022/11/12 11:33:00;;;;;;;15.00;10.95;;;17.90;66.90;;;;;;5034133;28;20508;-13
2022/11/12 11:35:52;;;;;;;20.30;12.68;;;17.90;67.10;;;;;;5033827;28;20543;-14
2022/11/12 11:38:29;;;;;;;18.92;13.00;;;18.00;66.10;;;;;;5033866;28;20029;-13
2022/11/12 11:41:29;;;;;;;17.77;12.10;;;18.00;65.90;;;;;;5033588;28;20029;-15
2022/11/12 11:44:12;;;;;;;20.42;13.18;;;18.00;65.80;;;;;;5033780;28;20146;-14
2022/11/12 11:46:44;;;;;;;;;;;18.10;65.70;;;;;;5034060;28;20029;-14
2022/11/12 11:49:29;;;;;;;19.77;14.07;;;18.10;64.80;;;;;;5033601;28;19951;-14
2022/11/12 11:52:01;;;;;;;20.25;13.73;;;18.10;64.00;;;;;;5033576;28;20034;-14
2022/11/12 11:54:58;;;;;;;19.65;14.52;;;18.00;64.80;;;;;;5033518;28;20130;-13
2022/11/12 11:57:31;;;;;;;16.77;12.38;;;18.10;64.50;;;;;;5033500;28;20477;-15
2022/11/12 12:00:03;;;;;;;17.63;13.68;;;18.00;64.80;;;;;;5034310;28;20375;-15
2022/11/12 12:03:21;;;;;;;18.27;13.07;;;18.00;64.80;;;;;;5033618;28;20548;-15
2022/11/12 12:05:58;;;;;;;14.98;10.77;;;18.10;64.50;;;;;;5011570;28;20049;-14
2022/11/12 12:08:44;;;;;;;16.23;11.45;;;18.10;64.90;;;;;;5070555;28;20039;-14
2022/11/12 12:11:27;;;;;;;20.58;14.18;;;18.30;65.00;;;;;;5094986;28;20101;-15
2022/11/12 12:14:08;;;;;;;21.17;15.00;;;18.40;64.60;;;;;;5095150;28;20039;-13
2022/11/12 12:16:41;;;;;;;19.75;14.07;;;18.60;63.70;;;;;;5095749;28;20040;-15
2022/11/12 12:19:24;;;;;;;20.98;15.68;;;18.70;63.10;;;;;;5095141;28;20447;-14
2022/11/12 12:21:51;;;;;;;;;;;18.80;63.10;;;;;;5096130;28;20353;-15
2022/11/12 12:24:35;;;;;;;17.48;12.80;;;18.90;63.60;;;;;;5095189;28;19904;-16
2022/11/12 12:27:31;;;;;;;19.15;12.95;;;19.00;63.60;;;;;;5094987;28;20028;-14
2022/11/12 12:30:01;;;;;;;22.08;14.20;;;19.20;63.40;;;;;;5095293;28;20020;-14
2022/11/12 12:32:33;;;;;;;17.08;12.95;;;19.40;63.20;;;;;;5095023;28;20514;-14
2022/11/12 12:35:26;;;;;;;22.08;16.67;;;19.40;62.80;;;;;;5095110;28;20086;-14
2022/11/12 12:38:27;;;;;;;18.08;14.15;;;19.40;62.80;;;;;;5094670;28;20040;-13
2022/11/12 12:41:08;;;;;;;18.48;13.98;;;19.30;62.10;;;;;;5091600;28;20111;-15
2022/11/12 12:43:42;;;;;;;24.45;16.20;;;19.20;63.10;;;;;;5095156;28;20028;-14
2022/11/12 12:46:11;;;;;;;16.33;13.07;;;19.00;63.50;;;;;;5095005;28;20020;-13
2022/11/12 12:48:41;;;;;;;18.67;13.40;;;18.90;63.70;;;;;;5095004;28;20502;-14
2022/11/12 12:51:08;;;;;;;21.27;17.30;;;18.70;64.40;;;;;;5094424;28;20066;-14
2022/11/12 12:53:35;;;;;;;19.05;13.30;;;18.70;64.60;;;;;;5094104;28;20050;-13
2022/11/12 12:56:22;;;;;;;15.77;12.50;;;18.60;64.70;;;;;;5094196;28;20044;-14
2022/11/12 12:58:50;;;;;;;17.23;13.73;;;18.60;64.80;;;;;;5094207;28;20111;-14
2022/11/12 13:01:21;;;;;;;23.40;16.95;;;18.60;65.10;;;;;;5094691;28;20106;-14
2022/11/12 13:03:56;;;;;;;17.83;13.90;;;18.60;64.80;;;;;;5094668;28;20085;-14
2022/11/12 13:06:22;;;;;;;23.23;17.38;;;18.50;65.10;;;;;;5094740;28;20032;-16
2022/11/12 13:09:11;;;;;;;20.20;15.32;;;18.50;65.00;;;;;;5094164;28;20033;-14
2022/11/12 13:14:30;;;;;;;22.73;17.67;;;18.20;65.30;;;;;;5094259;28;20112;-15
2022/11/12 13:17:16;;;;;;;23.20;18.40;;;18.00;65.30;;;;;;5094113;28;20060;-14
2022/11/12 13:19:57;;;;;;;20.45;15.85;;;17.90;65.40;;;;;;5083236;28;20025;-14
2022/11/12 13:22:23;;;;;;;17.90;13.30;;;17.90;66.10;;;;;;5094339;28;20028;-15